Minerva Zen — SVBN3 — position and weather

sailwx.info

Track history (hours):
 
Tides and Currents Weather Stations Pressure Air Temp Water Temp Dewpoint Dewpoint Depression Visibility Wind Speed Wind Dir Waves Ship Positions

Minerva Zen

Last reported at 2017-Jun-29 01:51 UTC. Time now 2017-Jun-29 02:24 UTC.
Position N 52°31' E 003°23'.

Length 183 m; draft 12 m.

Type: Ship. MMSI: 241190000.

Date/timePositionNaut miles runAvg speedWind from/ knotsBaromVisibWave heightAir tempDewpointWater temp
2017-Jun-29 01:51N 52°31' E 003°23'512.2
2017-Jun-29 01:28N 52°35' E 003°28'712.2
2017-Jun-29 00:56N 52°40' E 003°35'2811.7
2017-Jun-28 22:33N 53°00' E 004°06'110.7
2017-Jun-28 22:27N 53°01' E 004°07'1010.5
2017-Jun-28 21:32N 53°08' E 004°19'110.1
2017-Jun-28 21:23N 53°09' E 004°21'4 9.8
2017-Jun-28 20:58N 53°12' E 004°26'8 9.7
2017-Jun-28 20:07N 53°19' E 004°30'2510.3
2017-Jun-28 17:42N 53°43' E 004°43'11311.6
2017-Jun-28 07:57N 55°21' E 006°19'612.1
2017-Jun-28 07:29N 55°26' E 006°24'612.2
2017-Jun-28 07:00N 55°32' E 006°29'612.1
2017-Jun-28 06:30N 55°37' E 006°34'612.1
2017-Jun-28 05:59N 55°43' E 006°39'612.1
2017-Jun-28 05:29N 55°48' E 006°44'9812.3
2017-Jun-27 21:28N 57°14' E 008°10'511.3
2017-Jun-27 21:01N 57°18' E 008°16'3211.8
2017-Jun-27 18:19N 57°36' E 009°04'711.6
2017-Jun-27 17:42N 57°40' E 009°16'411.4
2017-Jun-27 17:23N 57°41' E 009°22'411.7
2017-Jun-27 17:00N 57°43' E 009°30'611.9
2017-Jun-27 16:30N 57°44' E 009°41'612.2
2017-Jun-27 16:00N 57°46' E 009°52'712.2
2017-Jun-27 15:28N 57°47' E 010°04'511.6
2017-Jun-27 15:00N 57°48' E 010°13'1111.0
2017-Jun-27 13:59N 57°49' E 010°34'510.7
2017-Jun-27 13:30N 57°49' E 010°44'611.3
2017-Jun-27 13:01N 57°45' E 010°51'611.6
2017-Jun-27 12:30N 57°41' E 011°00'612.2
2017-Jun-27 12:00N 57°37' E 011°08'612.0
2017-Jun-27 11:28N 57°32' E 011°17'612.0
2017-Jun-27 11:01N 57°29' E 011°24'611.9
2017-Jun-27 10:31N 57°23' E 011°29'612.0
2017-Jun-27 10:01N 57°18' E 011°33'611.8
2017-Jun-27 09:30N 57°12' E 011°37'611.5
2017-Jun-27 09:00N 57°07' E 011°40'611.5
2017-Jun-27 08:30N 57°01' E 011°43'1910.4
2017-Jun-27 06:41N 56°43' E 011°52'212.0
2017-Jun-27 06:30N 56°41' E 011°50'87 9.9
2017-Jun-26 21:47N 55°18' E 011°03'4 9.4
2017-Jun-26 21:24N 55°15' E 011°05'9 9.1
2017-Jun-26 20:27N 55°07' E 010°60'810.0
2017-Jun-26 19:37N 54°59' E 010°58'1 9.3
2017-Jun-26 19:31N 54°58' E 010°57'5 9.8
2017-Jun-26 18:59N 54°54' E 010°51'4 9.2
2017-Jun-26 18:31N 54°50' E 010°50'5 9.5
2017-Jun-26 18:01N 54°45' E 010°48'5 9.8
2017-Jun-26 17:30N 54°40' E 010°48'5 9.8
2017-Jun-26 16:58N 54°38' E 010°56'6 9.0
2017-Jun-26 16:17N 54°36' E 011°06'2 9.1
2017-Jun-26 16:01N 54°36' E 011°11'5 9.7
2017-Jun-26 15:31N 54°34' E 011°18'5 9.8
2017-Jun-26 15:00N 54°32' E 011°26'10 9.6
2017-Jun-26 13:58N 54°28' E 011°42'1010.4
2017-Jun-26 13:02N 54°27' E 011°58'010.6
2017-Jun-26 13:00N 54°27' E 011°59'510.4
2017-Jun-26 12:30N 54°27' E 012°07'4 8.9
2017-Jun-26 12:00N 54°30' E 012°13'510.7
2017-Jun-26 11:30N 54°35' E 012°16'4 8.5
2017-Jun-26 11:01N 54°39' E 012°19'4410.7
2017-Jun-26 06:54N 54°57' E 013°28'411.0
2017-Jun-26 06:30N 54°58' E 013°35'510.8
2017-Jun-26 06:00N 55°00' E 013°44'510.7
2017-Jun-26 05:30N 55°02' E 013°53'510.7
2017-Jun-26 05:00N 55°04' E 014°02'510.3
2017-Jun-26 04:30N 55°07' E 014°09'510.8
2017-Jun-26 04:00N 55°11' E 014°15'511.0
2017-Jun-26 03:30N 55°16' E 014°21'611.1
2017-Jun-26 03:00N 55°20' E 014°27'611.0
2017-Jun-26 02:30N 55°24' E 014°32'511.0
2017-Jun-26 02:00N 55°28' E 014°39'611.2
2017-Jun-26 01:30N 55°31' E 014°48'611.0
2017-Jun-26 01:00N 55°33' E 014°57'611.0
2017-Jun-26 00:30N 55°35' E 015°06'510.9
2017-Jun-26 00:00N 55°37' E 015°15'510.7
2017-Jun-25 23:31N 55°39' E 015°24'611.0
2017-Jun-25 23:00N 55°40' E 015°33'611.1
2017-Jun-25 22:31N 55°42' E 015°43'611.2
2017-Jun-25 22:01N 55°43' E 015°53'611.2
2017-Jun-25 21:30N 55°44' E 016°02'611.3
2017-Jun-25 21:01N 55°46' E 016°12'611.2
2017-Jun-25 20:30N 55°47' E 016°21'611.1
2017-Jun-25 20:01N 55°49' E 016°31'611.1
2017-Jun-25 19:31N 55°50' E 016°41'611.1
2017-Jun-25 19:00N 55°52' E 016°50'611.1
2017-Jun-25 18:31N 55°53' E 016°60'611.1
2017-Jun-25 18:01N 55°54' E 017°09'611.1
2017-Jun-25 17:31N 55°56' E 017°19'611.2
2017-Jun-25 17:01N 55°57' E 017°28'611.3
2017-Jun-25 16:31N 55°59' E 017°38'611.3
2017-Jun-25 16:00N 56°00' E 017°48'811.5
2017-Jun-25 15:18N 56°05' E 018°00'311.5
2017-Jun-25 15:00N 56°07' E 018°05'611.3
2017-Jun-25 14:29N 56°10' E 018°14'2411.3
2017-Jun-25 12:20N 56°25' E 018°48'511.6
2017-Jun-25 11:54N 56°29' E 018°52'12310.5
2017-Jun-25 00:16N 57°52' E 021°40'311.6
2017-Jun-25 00:00N 57°49' E 021°42'510.8
2017-Jun-24 23:31N 57°44' E 021°47'611.0
2017-Jun-24 23:00N 57°41' E 021°56'6 9.9
2017-Jun-24 22:22N 57°44' E 022°07'510.7
2017-Jun-24 21:53N 57°46' E 022°15'410.8
2017-Jun-24 21:30N 57°48' E 022°22'1010.6
2017-Jun-24 20:34N 57°52' E 022°39'111.4
2017-Jun-24 20:27N 57°51' E 022°41'21 0.5
2017-Jun-23 01:56N 57°42' E 022°06'511.8
2017-Jun-23 01:30N 57°41' E 021°56'4211.7
2017-Jun-22 21:55N 58°17' E 021°16'1612.2
2017-Jun-22 20:36N 58°31' E 021°03'212.3
2017-Jun-22 20:24N 58°34' E 021°02'512.4
2017-Jun-22 20:00N 58°38' E 021°01'1012.8
2017-Jun-22 19:13N 58°47' E 021°09'411.9
2017-Jun-22 18:53N 58°51' E 021°14'512.6
2017-Jun-22 18:30N 58°55' E 021°19'612.7
2017-Jun-22 18:00N 59°00' E 021°25'612.9
2017-Jun-22 17:31N 59°05' E 021°32'612.7
2017-Jun-22 17:01N 59°11' E 021°39'612.4
2017-Jun-22 16:30N 59°14' E 021°49'612.2
2017-Jun-22 16:01N 59°18' E 021°59'612.2
2017-Jun-22 15:31N 59°22' E 022°08'611.9
2017-Jun-22 15:01N 59°25' E 022°18'611.9
2017-Jun-22 14:31N 59°29' E 022°27'1211.9
2017-Jun-22 13:30N 59°33' E 022°49'612.1
2017-Jun-22 13:00N 59°35' E 023°00'612.1
2017-Jun-22 12:31N 59°36' E 023°12'612.0
2017-Jun-22 12:00N 59°38' E 023°23'611.8
2017-Jun-22 11:31N 59°40' E 023°35'611.6
2017-Jun-22 11:00N 59°41' E 023°46'611.6
2017-Jun-22 10:31N 59°43' E 023°57'611.7
2017-Jun-22 10:00N 59°45' E 024°08'611.7
2017-Jun-22 09:31N 59°46' E 024°19'611.8
2017-Jun-22 09:01N 59°48' E 024°30'612.0
2017-Jun-22 08:30N 59°49' E 024°42'612.0
2017-Jun-22 08:01N 59°50' E 024°53'611.8
2017-Jun-22 07:30N 59°52' E 025°05'611.8
2017-Jun-22 07:00N 59°53' E 025°17'611.9
2017-Jun-22 06:31N 59°54' E 025°28'611.8
2017-Jun-22 06:01N 59°54' E 025°40'611.6
2017-Jun-22 05:30N 59°56' E 025°51'611.7
2017-Jun-22 05:01N 59°57' E 026°03'611.9
2017-Jun-22 04:31N 59°59' E 026°14'611.9
2017-Jun-22 04:01N 60°00' E 026°25'611.7
2017-Jun-22 03:31N 60°01' E 026°37'611.9
2017-Jun-22 03:01N 60°01' E 026°49'612.0
2017-Jun-22 02:31N 59°59' E 027°00'611.5
2017-Jun-22 02:00N 60°02' E 027°11'612.2
2017-Jun-22 01:31N 60°05' E 027°21'612.4
2017-Jun-22 01:01N 60°08' E 027°32'612.3
2017-Jun-22 00:31N 60°11' E 027°42'611.4
2017-Jun-22 00:01N 60°11' E 027°54'611.9
2017-Jun-21 23:30N 60°10' E 028°06'611.8
2017-Jun-21 23:01N 60°08' E 028°17'611.8
2017-Jun-21 22:30N 60°04' E 028°27'611.7
2017-Jun-21 22:01N 60°03' E 028°38'611.8
2017-Jun-21 21:30N 60°03' E 028°50'611.9
2017-Jun-21 21:00N 60°02' E 029°02'611.5
2017-Jun-21 20:30N 60°02' E 029°13'611.4
2017-Jun-21 20:01N 60°02' E 029°25'4 8.2
2017-Jun-21 19:30N 60°01' E 029°33'5 9.7
2017-Jun-21 19:01N 59°59' E 029°42'4 9.0
2017-Jun-21 18:30N 59°57' E 029°50'510.6
2017-Jun-21 18:00N 59°55' E 029°60'5 9.0
2017-Jun-21 17:30N 59°54' E 030°08'1 2.1
2017-Jun-21 16:57N 59°53' E 030°10'0 0.0
2017-Jun-21 16:30N 59°53' E 030°10'0 0.0
2017-Jun-21 16:00N 59°53' E 030°10'0 0.0
2017-Jun-21 15:27N 59°53' E 030°10'0 0.0
2017-Jun-21 15:00N 59°53' E 030°10'0 0.0
2017-Jun-21 14:27N 59°53' E 030°10'0 0.0
2017-Jun-21 13:30N 59°53' E 030°10'0 0.0
2017-Jun-21 13:00N 59°53' E 030°10'0 0.0
2017-Jun-21 12:30N 59°53' E 030°10'0 0.0
2017-Jun-21 12:00N 59°53' E 030°10'0 0.0
2017-Jun-21 11:27N 59°53' E 030°10'0 0.0
2017-Jun-21 11:00N 59°53' E 030°10'0 0.0
2017-Jun-21 10:27N 59°53' E 030°10'0 0.0
2017-Jun-21 10:00N 59°53' E 030°10'0 0.0
2017-Jun-21 09:30N 59°53' E 030°10'0 0.0
2017-Jun-21 09:00N 59°53' E 030°10'0 0.0
2017-Jun-21 08:27N 59°53' E 030°10'0 0.0
2017-Jun-21 07:57N 59°53' E 030°10'0 0.0
2017-Jun-21 07:30N 59°53' E 030°10'0 0.0
2017-Jun-21 07:00N 59°53' E 030°10'0 0.0
2017-Jun-21 06:27N 59°53' E 030°10'0 0.0
2017-Jun-21 06:00N 59°53' E 030°10'0 0.0
2017-Jun-21 05:30N 59°53' E 030°10'0 0.0
2017-Jun-21 05:00N 59°53' E 030°10'0 0.0
2017-Jun-21 04:30N 59°53' E 030°10'0 0.0
2017-Jun-21 04:00N 59°53' E 030°10'0 0.0
2017-Jun-21 03:30N 59°53' E 030°10'0 0.0
2017-Jun-21 03:00N 59°53' E 030°10'0 0.0
2017-Jun-21 02:30N 59°53' E 030°10'0 0.0
2017-Jun-21 02:00N 59°53' E 030°10'0 0.0
2017-Jun-21 01:30N 59°53' E 030°10'0 0.0
2017-Jun-21 01:00N 59°53' E 030°10'0 0.0
2017-Jun-21 00:30N 59°53' E 030°10'0 0.0
2017-Jun-21 00:00N 59°53' E 030°10'0 0.0
2017-Jun-20 23:30N 59°53' E 030°10'0 0.0
2017-Jun-20 22:54N 59°53' E 030°10'0 0.0
2017-Jun-20 22:30N 59°53' E 030°10'0 0.0
2017-Jun-20 22:00N 59°53' E 030°10'0 0.0
2017-Jun-20 21:30N 59°53' E 030°10'0 0.0
2017-Jun-20 21:00N 59°53' E 030°10'0 0.0
2017-Jun-20 20:27N 59°53' E 030°10'0 0.0
2017-Jun-20 19:57N 59°53' E 030°10'0 0.0
2017-Jun-20 19:30N 59°53' E 030°10'0 0.0
2017-Jun-20 18:57N 59°53' E 030°10'0 0.0
2017-Jun-20 18:09N 59°53' E 030°10'0 0.0
2017-Jun-20 17:57N 59°53' E 030°10'0 0.0
2017-Jun-20 17:27N 59°53' E 030°10'0 0.0
2017-Jun-20 16:57N 59°53' E 030°10'0 0.0
2017-Jun-20 16:30N 59°53' E 030°10'0 0.0
2017-Jun-20 16:00N 59°53' E 030°10'0 0.0
2017-Jun-20 15:30N 59°53' E 030°10'0 0.0
2017-Jun-20 14:51N 59°53' E 030°10'0 0.0
2017-Jun-20 14:00N 59°53' E 030°10'0 0.0
2017-Jun-20 13:27N 59°53' E 030°10'0 0.0
2017-Jun-20 12:51N 59°53' E 030°10'0 0.0
2017-Jun-20 12:27N 59°53' E 030°10'0 0.0
2017-Jun-20 11:57N 59°53' E 030°10'0 0.0
2017-Jun-20 11:27N 59°53' E 030°10'0 0.0
2017-Jun-20 10:57N 59°53' E 030°10'0 0.0
2017-Jun-20 10:30N 59°53' E 030°10'0 0.0
2017-Jun-20 10:00N 59°53' E 030°10'0 0.0
2017-Jun-20 09:27N 59°53' E 030°10'0 0.0
2017-Jun-20 08:57N 59°53' E 030°10'0 0.0
2017-Jun-20 08:27N 59°53' E 030°10'0 0.0
2017-Jun-20 07:57N 59°53' E 030°10'0 0.0
2017-Jun-19 14:00N 59°53' E 030°10'  
Track history (hours):
 
Tides and Currents Weather Stations Pressure Air Temp Water Temp Dewpoint Dewpoint Depression Visibility Wind Speed Wind Dir Waves Ship Positions

Minerva Zen

Last reported at 2017-Jun-29 01:51 UTC. Time now 2017-Jun-29 02:24 UTC.
Position N 52°31' E 003°23'.

Length 183 m; draft 12 m.

Type: Ship. MMSI: 241190000.

Date/timePositionNaut miles runAvg speedWind from/ knotsBaromVisibWave heightAir tempDewpointWater temp
2017-Jun-29 01:51N 52°31' E 003°23'512.2
2017-Jun-29 01:28N 52°35' E 003°28'712.2
2017-Jun-29 00:56N 52°40' E 003°35'2811.7
2017-Jun-28 22:33N 53°00' E 004°06'110.7
2017-Jun-28 22:27N 53°01' E 004°07'1010.5
2017-Jun-28 21:32N 53°08' E 004°19'110.1
2017-Jun-28 21:23N 53°09' E 004°21'4 9.8
2017-Jun-28 20:58N 53°12' E 004°26'8 9.7
2017-Jun-28 20:07N 53°19' E 004°30'2510.3
2017-Jun-28 17:42N 53°43' E 004°43'11311.6
2017-Jun-28 07:57N 55°21' E 006°19'612.1
2017-Jun-28 07:29N 55°26' E 006°24'612.2
2017-Jun-28 07:00N 55°32' E 006°29'612.1
2017-Jun-28 06:30N 55°37' E 006°34'612.1
2017-Jun-28 05:59N 55°43' E 006°39'612.1
2017-Jun-28 05:29N 55°48' E 006°44'9812.3
2017-Jun-27 21:28N 57°14' E 008°10'511.3
2017-Jun-27 21:01N 57°18' E 008°16'3211.8
2017-Jun-27 18:19N 57°36' E 009°04'711.6
2017-Jun-27 17:42N 57°40' E 009°16'411.4
2017-Jun-27 17:23N 57°41' E 009°22'411.7
2017-Jun-27 17:00N 57°43' E 009°30'611.9
2017-Jun-27 16:30N 57°44' E 009°41'612.2
2017-Jun-27 16:00N 57°46' E 009°52'712.2
2017-Jun-27 15:28N 57°47' E 010°04'511.6
2017-Jun-27 15:00N 57°48' E 010°13'1111.0
2017-Jun-27 13:59N 57°49' E 010°34'510.7
2017-Jun-27 13:30N 57°49' E 010°44'611.3
2017-Jun-27 13:01N 57°45' E 010°51'611.6
2017-Jun-27 12:30N 57°41' E 011°00'612.2
2017-Jun-27 12:00N 57°37' E 011°08'612.0
2017-Jun-27 11:28N 57°32' E 011°17'612.0
2017-Jun-27 11:01N 57°29' E 011°24'611.9
2017-Jun-27 10:31N 57°23' E 011°29'612.0
2017-Jun-27 10:01N 57°18' E 011°33'611.8
2017-Jun-27 09:30N 57°12' E 011°37'611.5
2017-Jun-27 09:00N 57°07' E 011°40'611.5
2017-Jun-27 08:30N 57°01' E 011°43'1910.4
2017-Jun-27 06:41N 56°43' E 011°52'212.0
2017-Jun-27 06:30N 56°41' E 011°50'87 9.9
2017-Jun-26 21:47N 55°18' E 011°03'4 9.4
2017-Jun-26 21:24N 55°15' E 011°05'9 9.1
2017-Jun-26 20:27N 55°07' E 010°60'810.0
2017-Jun-26 19:37N 54°59' E 010°58'1 9.3
2017-Jun-26 19:31N 54°58' E 010°57'5 9.8
2017-Jun-26 18:59N 54°54' E 010°51'4 9.2
2017-Jun-26 18:31N 54°50' E 010°50'5 9.5
2017-Jun-26 18:01N 54°45' E 010°48'5 9.8
2017-Jun-26 17:30N 54°40' E 010°48'5 9.8
2017-Jun-26 16:58N 54°38' E 010°56'6 9.0
2017-Jun-26 16:17N 54°36' E 011°06'2 9.1
2017-Jun-26 16:01N 54°36' E 011°11'5 9.7
2017-Jun-26 15:31N 54°34' E 011°18'5 9.8
2017-Jun-26 15:00N 54°32' E 011°26'10 9.6
2017-Jun-26 13:58N 54°28' E 011°42'1010.4
2017-Jun-26 13:02N 54°27' E 011°58'010.6
2017-Jun-26 13:00N 54°27' E 011°59'510.4
2017-Jun-26 12:30N 54°27' E 012°07'4 8.9
2017-Jun-26 12:00N 54°30' E 012°13'510.7
2017-Jun-26 11:30N 54°35' E 012°16'4 8.5
2017-Jun-26 11:01N 54°39' E 012°19'4410.7
2017-Jun-26 06:54N 54°57' E 013°28'411.0
2017-Jun-26 06:30N 54°58' E 013°35'510.8
2017-Jun-26 06:00N 55°00' E 013°44'510.7
2017-Jun-26 05:30N 55°02' E 013°53'510.7
2017-Jun-26 05:00N 55°04' E 014°02'510.3
2017-Jun-26 04:30N 55°07' E 014°09'510.8
2017-Jun-26 04:00N 55°11' E 014°15'511.0
2017-Jun-26 03:30N 55°16' E 014°21'611.1
2017-Jun-26 03:00N 55°20' E 014°27'611.0
2017-Jun-26 02:30N 55°24' E 014°32'511.0
2017-Jun-26 02:00N 55°28' E 014°39'611.2
2017-Jun-26 01:30N 55°31' E 014°48'611.0
2017-Jun-26 01:00N 55°33' E 014°57'611.0
2017-Jun-26 00:30N 55°35' E 015°06'510.9
2017-Jun-26 00:00N 55°37' E 015°15'510.7
2017-Jun-25 23:31N 55°39' E 015°24'611.0
2017-Jun-25 23:00N 55°40' E 015°33'611.1
2017-Jun-25 22:31N 55°42' E 015°43'611.2
2017-Jun-25 22:01N 55°43' E 015°53'611.2
2017-Jun-25 21:30N 55°44' E 016°02'611.3
2017-Jun-25 21:01N 55°46' E 016°12'611.2
2017-Jun-25 20:30N 55°47' E 016°21'611.1
2017-Jun-25 20:01N 55°49' E 016°31'611.1
2017-Jun-25 19:31N 55°50' E 016°41'611.1
2017-Jun-25 19:00N 55°52' E 016°50'611.1
2017-Jun-25 18:31N 55°53' E 016°60'611.1
2017-Jun-25 18:01N 55°54' E 017°09'611.1
2017-Jun-25 17:31N 55°56' E 017°19'611.2
2017-Jun-25 17:01N 55°57' E 017°28'611.3
2017-Jun-25 16:31N 55°59' E 017°38'611.3
2017-Jun-25 16:00N 56°00' E 017°48'811.5
2017-Jun-25 15:18N 56°05' E 018°00'311.5
2017-Jun-25 15:00N 56°07' E 018°05'611.3
2017-Jun-25 14:29N 56°10' E 018°14'2411.3
2017-Jun-25 12:20N 56°25' E 018°48'511.6
2017-Jun-25 11:54N 56°29' E 018°52'12310.5
2017-Jun-25 00:16N 57°52' E 021°40'311.6
2017-Jun-25 00:00N 57°49' E 021°42'510.8
2017-Jun-24 23:31N 57°44' E 021°47'611.0
2017-Jun-24 23:00N 57°41' E 021°56'6 9.9
2017-Jun-24 22:22N 57°44' E 022°07'510.7
2017-Jun-24 21:53N 57°46' E 022°15'410.8
2017-Jun-24 21:30N 57°48' E 022°22'1010.6
2017-Jun-24 20:34N 57°52' E 022°39'111.4
2017-Jun-24 20:27N 57°51' E 022°41'21 0.5
2017-Jun-23 01:56N 57°42' E 022°06'511.8
2017-Jun-23 01:30N 57°41' E 021°56'4211.7
2017-Jun-22 21:55N 58°17' E 021°16'1612.2
2017-Jun-22 20:36N 58°31' E 021°03'212.3
2017-Jun-22 20:24N 58°34' E 021°02'512.4
2017-Jun-22 20:00N 58°38' E 021°01'1012.8
2017-Jun-22 19:13N 58°47' E 021°09'411.9
2017-Jun-22 18:53N 58°51' E 021°14'512.6
2017-Jun-22 18:30N 58°55' E 021°19'612.7
2017-Jun-22 18:00N 59°00' E 021°25'612.9
2017-Jun-22 17:31N 59°05' E 021°32'612.7
2017-Jun-22 17:01N 59°11' E 021°39'612.4
2017-Jun-22 16:30N 59°14' E 021°49'612.2
2017-Jun-22 16:01N 59°18' E 021°59'612.2
2017-Jun-22 15:31N 59°22' E 022°08'611.9
2017-Jun-22 15:01N 59°25' E 022°18'611.9
2017-Jun-22 14:31N 59°29' E 022°27'1211.9
2017-Jun-22 13:30N 59°33' E 022°49'612.1
2017-Jun-22 13:00N 59°35' E 023°00'612.1
2017-Jun-22 12:31N 59°36' E 023°12'612.0
2017-Jun-22 12:00N 59°38' E 023°23'611.8
2017-Jun-22 11:31N 59°40' E 023°35'611.6
2017-Jun-22 11:00N 59°41' E 023°46'611.6
2017-Jun-22 10:31N 59°43' E 023°57'611.7
2017-Jun-22 10:00N 59°45' E 024°08'611.7
2017-Jun-22 09:31N 59°46' E 024°19'611.8
2017-Jun-22 09:01N 59°48' E 024°30'612.0
2017-Jun-22 08:30N 59°49' E 024°42'612.0
2017-Jun-22 08:01N 59°50' E 024°53'611.8
2017-Jun-22 07:30N 59°52' E 025°05'611.8
2017-Jun-22 07:00N 59°53' E 025°17'611.9
2017-Jun-22 06:31N 59°54' E 025°28'611.8
2017-Jun-22 06:01N 59°54' E 025°40'611.6
2017-Jun-22 05:30N 59°56' E 025°51'611.7
2017-Jun-22 05:01N 59°57' E 026°03'611.9
2017-Jun-22 04:31N 59°59' E 026°14'611.9
2017-Jun-22 04:01N 60°00' E 026°25'611.7
2017-Jun-22 03:31N 60°01' E 026°37'611.9
2017-Jun-22 03:01N 60°01' E 026°49'612.0
2017-Jun-22 02:31N 59°59' E 027°00'611.5
2017-Jun-22 02:00N 60°02' E 027°11'612.2
2017-Jun-22 01:31N 60°05' E 027°21'612.4
2017-Jun-22 01:01N 60°08' E 027°32'612.3
2017-Jun-22 00:31N 60°11' E 027°42'611.4
2017-Jun-22 00:01N 60°11' E 027°54'611.9
2017-Jun-21 23:30N 60°10' E 028°06'611.8
2017-Jun-21 23:01N 60°08' E 028°17'611.8
2017-Jun-21 22:30N 60°04' E 028°27'611.7
2017-Jun-21 22:01N 60°03' E 028°38'611.8
2017-Jun-21 21:30N 60°03' E 028°50'611.9
2017-Jun-21 21:00N 60°02' E 029°02'611.5
2017-Jun-21 20:30N 60°02' E 029°13'611.4
2017-Jun-21 20:01N 60°02' E 029°25'4 8.2
2017-Jun-21 19:30N 60°01' E 029°33'5 9.7
2017-Jun-21 19:01N 59°59' E 029°42'4 9.0
2017-Jun-21 18:30N 59°57' E 029°50'510.6
2017-Jun-21 18:00N 59°55' E 029°60'5 9.0
2017-Jun-21 17:30N 59°54' E 030°08'1 2.1
2017-Jun-21 16:57N 59°53' E 030°10'0 0.0
2017-Jun-21 16:30N 59°53' E 030°10'0 0.0
2017-Jun-21 16:00N 59°53' E 030°10'0 0.0
2017-Jun-21 15:27N 59°53' E 030°10'0 0.0
2017-Jun-21 15:00N 59°53' E 030°10'0 0.0
2017-Jun-21 14:27N 59°53' E 030°10'0 0.0
2017-Jun-21 13:30N 59°53' E 030°10'0 0.0
2017-Jun-21 13:00N 59°53' E 030°10'0 0.0
2017-Jun-21 12:30N 59°53' E 030°10'0 0.0
2017-Jun-21 12:00N 59°53' E 030°10'0 0.0
2017-Jun-21 11:27N 59°53' E 030°10'0 0.0
2017-Jun-21 11:00N 59°53' E 030°10'0 0.0
2017-Jun-21 10:27N 59°53' E 030°10'0 0.0
2017-Jun-21 10:00N 59°53' E 030°10'0 0.0
2017-Jun-21 09:30N 59°53' E 030°10'0 0.0
2017-Jun-21 09:00N 59°53' E 030°10'0 0.0
2017-Jun-21 08:27N 59°53' E 030°10'0 0.0
2017-Jun-21 07:57N 59°53' E 030°10'0 0.0
2017-Jun-21 07:30N 59°53' E 030°10'0 0.0
2017-Jun-21 07:00N 59°53' E 030°10'0 0.0
2017-Jun-21 06:27N 59°53' E 030°10'0 0.0
2017-Jun-21 06:00N 59°53' E 030°10'0 0.0
2017-Jun-21 05:30N 59°53' E 030°10'0 0.0
2017-Jun-21 05:00N 59°53' E 030°10'0 0.0
2017-Jun-21 04:30N 59°53' E 030°10'0 0.0
2017-Jun-21 04:00N 59°53' E 030°10'0 0.0
2017-Jun-21 03:30N 59°53' E 030°10'0 0.0
2017-Jun-21 03:00N 59°53' E 030°10'0 0.0
2017-Jun-21 02:30N 59°53' E 030°10'0 0.0
2017-Jun-21 02:00N 59°53' E 030°10'0 0.0
2017-Jun-21 01:30N 59°53' E 030°10'0 0.0
2017-Jun-21 01:00N 59°53' E 030°10'0 0.0
2017-Jun-21 00:30N 59°53' E 030°10'0 0.0
2017-Jun-21 00:00N 59°53' E 030°10'0 0.0
2017-Jun-20 23:30N 59°53' E 030°10'0 0.0
2017-Jun-20 22:54N 59°53' E 030°10'0 0.0
2017-Jun-20 22:30N 59°53' E 030°10'0 0.0
2017-Jun-20 22:00N 59°53' E 030°10'0 0.0
2017-Jun-20 21:30N 59°53' E 030°10'0 0.0
2017-Jun-20 21:00N 59°53' E 030°10'0 0.0
2017-Jun-20 20:27N 59°53' E 030°10'0 0.0
2017-Jun-20 19:57N 59°53' E 030°10'0 0.0
2017-Jun-20 19:30N 59°53' E 030°10'0 0.0
2017-Jun-20 18:57N 59°53' E 030°10'0 0.0
2017-Jun-20 18:09N 59°53' E 030°10'0 0.0
2017-Jun-20 17:57N 59°53' E 030°10'0 0.0
2017-Jun-20 17:27N 59°53' E 030°10'0 0.0
2017-Jun-20 16:57N 59°53' E 030°10'0 0.0
2017-Jun-20 16:30N 59°53' E 030°10'0 0.0
2017-Jun-20 16:00N 59°53' E 030°10'0 0.0
2017-Jun-20 15:30N 59°53' E 030°10'0 0.0
2017-Jun-20 14:51N 59°53' E 030°10'0 0.0
2017-Jun-20 14:00N 59°53' E 030°10'0 0.0
2017-Jun-20 13:27N 59°53' E 030°10'0 0.0
2017-Jun-20 12:51N 59°53' E 030°10'0 0.0
2017-Jun-20 12:27N 59°53' E 030°10'0 0.0
2017-Jun-20 11:57N 59°53' E 030°10'0 0.0
2017-Jun-20 11:27N 59°53' E 030°10'0 0.0
2017-Jun-20 10:57N 59°53' E 030°10'0 0.0
2017-Jun-20 10:30N 59°53' E 030°10'0 0.0
2017-Jun-20 10:00N 59°53' E 030°10'0 0.0
2017-Jun-20 09:27N 59°53' E 030°10'0 0.0
2017-Jun-20 08:57N 59°53' E 030°10'0 0.0
2017-Jun-20 08:27N 59°53' E 030°10'0 0.0
2017-Jun-20 07:57N 59°53' E 030°10'0 0.0
2017-Jun-19 14:00N 59°53' E 030°10'  

Dump ship's entire track history